Terminal Aerodrome Forecast
Issued by NWS

Current Version | Previous Version | Text Only | Print | Product List | Glossary On
Versions: 1 2 3 4 5 6 7 8 9 10 11 12 13 14
000
FTUS42 TJSJ 260500 RRA
TAFJSJ
TAF
TJSJ 260543Z 2606/2706 VRB04KT P6SM VCSH FEW025 SCT035
     FM261300 07014G21KT P6SM VCSH SCT025 SCT035 SCT070
     FM262300 07008KT P6SM SCT030=

USA.gov is the U.S. government's official web portal to all federal, state and local government web resources and services.